Time;durP1;ratioP1;P1;durP2;ratioP2;P2;SDS_P1;SDS_P2;PMS_P1;PMS_P2;Temp;Humidity;BMP_temperature;BMP_pressure;BME280_temperature;BME280_humidity;BME280_pressure;Samples;Min_cycle;Max_cycle;Signal;HPM_P1;HPM_P2
2023/06/24 00:00:11;;;;;;;8.23;3.42;;;19.20;99.90;;;;;;5096676;28;20028;-59
2023/06/24 00:02:38;;;;;;;8.63;3.58;;;19.10;99.90;;;;;;5096444;28;20483;-59
2023/06/24 00:05:06;;;;;;;11.55;3.53;;;19.20;99.90;;;;;;5096526;28;20480;-59
2023/06/24 00:07:35;;;;;;;12.60;3.70;;;19.20;99.90;;;;;;5096677;28;20208;-59
2023/06/24 00:10:03;;;;;;;10.95;3.20;;;19.10;99.90;;;;;;5096627;28;20020;-59
2023/06/24 00:12:29;;;;;;;12.25;3.72;;;19.10;99.90;;;;;;5099274;28;20027;-59
2023/06/24 00:14:55;;;;;;;11.30;3.58;;;19.00;99.90;;;;;;5116759;28;20487;-59
2023/06/24 00:17:21;;;;;;;10.38;3.45;;;19.00;99.90;;;;;;5116913;28;20053;-59
2023/06/24 00:19:47;;;;;;;9.43;3.63;;;19.00;99.90;;;;;;5116712;28;20077;-59
2023/06/24 00:22:13;;;;;;;6.13;3.25;;;19.00;99.90;;;;;;5116665;28;20072;-59
2023/06/24 00:24:39;;;;;;;11.25;4.25;;;18.80;99.90;;;;;;5116581;28;20036;-59
2023/06/24 00:27:05;;;;;;;17.27;3.70;;;18.70;99.90;;;;;;5116632;28;20030;-59
2023/06/24 00:29:31;;;;;;;16.42;3.50;;;18.60;99.90;;;;;;5116828;28;20023;-59
2023/06/24 00:31:57;;;;;;;8.75;3.53;;;18.70;99.90;;;;;;5116677;28;20035;-59
2023/06/24 00:34:23;;;;;;;10.13;3.60;;;18.80;99.90;;;;;;5115213;28;20028;-59
2023/06/24 00:36:51;;;;;;;14.07;4.32;;;18.80;99.90;;;;;;5115155;28;20101;-59
2023/06/24 00:39:19;;;;;;;11.00;3.38;;;18.70;99.90;;;;;;5115238;28;20032;-59
2023/06/24 00:41:45;;;;;;;6.90;4.05;;;18.70;99.90;;;;;;5116217;28;20434;-59
2023/06/24 00:44:11;;;;;;;10.07;4.15;;;18.70;99.90;;;;;;5116288;28;20031;-59
2023/06/24 00:46:39;;;;;;;11.73;4.03;;;18.70;99.90;;;;;;5116366;28;20496;-59
2023/06/24 00:49:06;;;;;;;8.65;3.88;;;18.70;99.90;;;;;;5116164;28;20529;-59
2023/06/24 00:51:35;;;;;;;13.15;4.35;;;18.70;99.90;;;;;;5116298;28;20477;-59
2023/06/24 00:54:01;;;;;;;11.27;3.70;;;18.60;99.90;;;;;;5114869;28;20110;-59
2023/06/24 00:56:38;;;;;;;11.95;3.85;;;18.50;99.90;;;;;;5116013;28;20066;-59
2023/06/24 00:59:06;;;;;;;11.93;3.83;;;18.60;99.90;;;;;;5115094;28;20026;-59
2023/06/24 01:01:35;;;;;;;13.75;4.20;;;18.50;99.90;;;;;;5115560;28;20109;-59
2023/06/24 01:04:02;;;;;;;12.75;4.20;;;18.50;99.90;;;;;;5116083;28;20354;-59
2023/06/24 01:06:29;;;;;;;10.00;4.85;;;18.50;99.90;;;;;;5115889;28;20028;-59
2023/06/24 01:08:59;;;;;;;13.45;5.00;;;18.60;99.90;;;;;;5115887;28;20051;-59
2023/06/24 01:11:27;;;;;;;12.40;4.55;;;18.50;99.90;;;;;;5115529;28;20027;-59
2023/06/24 01:13:53;;;;;;;15.13;4.85;;;18.60;99.90;;;;;;5100574;28;20106;-59
2023/06/24 01:16:54;;;;;;;17.35;4.82;;;18.70;99.90;;;;;;5095169;28;20540;-59
2023/06/24 01:19:32;;;;;;;10.95;4.47;;;18.70;99.90;;;;;;5091311;28;20057;-59
2023/06/24 01:22:20;;;;;;;14.32;4.25;;;18.70;99.90;;;;;;5095185;28;20055;-59
2023/06/24 01:24:59;;;;;;;14.52;4.55;;;18.70;99.90;;;;;;5095140;28;20032;-59
2023/06/24 01:27:44;;;;;;;13.50;4.55;;;18.70;99.90;;;;;;5095086;28;20052;-59
2023/06/24 01:30:21;;;;;;;10.77;4.65;;;18.70;99.90;;;;;;5093950;28;20054;-59
2023/06/24 01:32:55;;;;;;;8.13;4.75;;;18.70;99.90;;;;;;5095006;28;20530;-59
2023/06/24 01:35:25;;;;;;;7.57;4.40;;;18.80;99.90;;;;;;5095088;28;20103;-59
2023/06/24 01:37:52;;;;;;;11.23;4.45;;;18.70;99.90;;;;;;5094878;28;20031;-59
2023/06/24 01:40:22;;;;;;;11.55;4.85;;;18.70;99.90;;;;;;5095015;28;20028;-59
2023/06/24 01:42:50;;;;;;;10.55;4.60;;;18.70;99.90;;;;;;5095025;28;20114;-59
2023/06/24 01:45:28;;;;;;;12.85;4.57;;;18.80;99.90;;;;;;5094800;28;20115;-59
2023/06/24 01:48:07;;;;;;;11.55;4.45;;;18.70;99.90;;;;;;5093551;28;20034;-59
2023/06/24 01:50:36;;;;;;;11.48;4.72;;;18.70;99.90;;;;;;5094914;28;20407;-59
2023/06/24 01:53:06;;;;;;;10.70;4.30;;;18.70;99.90;;;;;;5093479;28;20453;-59
2023/06/24 01:55:34;;;;;;;14.60;4.40;;;18.80;99.90;;;;;;5094749;28;20028;-59
2023/06/24 01:58:02;;;;;;;11.05;4.15;;;18.70;99.90;;;;;;5094775;28;20024;-59
2023/06/24 02:00:29;;;;;;;12.48;3.92;;;18.70;99.90;;;;;;5093418;28;20111;-59
2023/06/24 02:02:55;;;;;;;11.20;4.30;;;18.70;99.90;;;;;;5094551;28;20032;-59
2023/06/24 02:05:23;;;;;;;11.35;4.78;;;18.80;99.90;;;;;;5094593;28;20085;-59
2023/06/24 02:07:51;;;;;;;12.23;4.18;;;18.80;99.90;;;;;;5093272;28;20385;-59
2023/06/24 02:10:18;;;;;;;13.93;4.38;;;18.80;99.90;;;;;;5094561;28;20017;-59
2023/06/24 02:12:47;;;;;;;10.63;4.15;;;18.80;99.90;;;;;;5099626;28;20430;-59
2023/06/24 02:15:14;;;;;;;9.15;4.10;;;18.90;99.90;;;;;;5113367;28;20428;-59
2023/06/24 02:17:41;;;;;;;12.52;4.20;;;18.80;99.90;;;;;;5113697;28;20036;-59
2023/06/24 02:20:10;;;;;;;9.70;4.13;;;18.80;99.90;;;;;;5114906;28;20472;-59
2023/06/24 02:22:40;;;;;;;8.95;4.22;;;18.80;99.90;;;;;;5114850;28;20051;-59
2023/06/24 02:25:07;;;;;;;8.40;4.13;;;18.80;99.90;;;;;;5113541;28;20031;-59
2023/06/24 02:27:35;;;;;;;8.85;4.20;;;18.60;99.90;;;;;;5118479;28;20020;-59
2023/06/24 02:30:03;;;;;;;9.77;4.22;;;18.60;99.90;;;;;;5118782;28;20019;-59
2023/06/24 02:32:29;;;;;;;8.63;4.60;;;18.70;99.90;;;;;;5119020;28;20085;-59
2023/06/24 02:34:58;;;;;;;11.35;4.70;;;18.70;99.90;;;;;;5118812;28;20039;-59
2023/06/24 02:37:23;;;;;;;13.65;4.45;;;18.60;99.90;;;;;;5118782;28;20027;-59
2023/06/24 02:39:50;;;;;;;15.27;4.70;;;18.60;99.90;;;;;;5117582;28;20059;-59
2023/06/24 02:42:16;;;;;;;17.60;4.95;;;18.60;99.90;;;;;;5117393;28;20043;-59
2023/06/24 02:44:42;;;;;;;10.95;5.00;;;18.70;99.90;;;;;;5118630;28;20028;-59
2023/06/24 02:47:12;;;;;;;11.93;5.45;;;18.70;99.90;;;;;;5118745;28;20038;-59
2023/06/24 02:49:40;;;;;;;19.15;5.97;;;18.70;99.90;;;;;;5117194;28;20399;-59
2023/06/24 02:52:06;;;;;;;13.45;5.63;;;18.70;99.90;;;;;;5117277;28;20028;-59
2023/06/24 02:54:34;;;;;;;10.25;5.20;;;18.70;99.90;;;;;;5117380;28;20023;-59
2023/06/24 02:57:20;;;;;;;22.98;6.00;;;18.70;99.90;;;;;;5118535;28;20584;-59
2023/06/24 03:00:19;;;;;;;12.73;5.30;;;18.70;99.90;;;;;;5105783;28;20036;-59
2023/06/24 03:03:06;;;;;;;10.15;4.47;;;18.70;99.90;;;;;;5106745;27;20063;-59
2023/06/24 03:05:35;;;;;;;13.20;5.00;;;18.60;99.90;;;;;;5116899;28;20507;-59
2023/06/24 03:08:05;;;;;;;14.77;5.47;;;18.60;99.90;;;;;;5117011;28;20023;-59
2023/06/24 03:10:32;;;;;;;12.73;5.40;;;18.60;99.90;;;;;;5117090;28;20150;-59
2023/06/24 03:12:58;;;;;;;17.13;6.15;;;18.60;99.90;;;;;;5109607;28;20070;-59
2023/06/24 03:15:33;;;;;;;12.10;6.00;;;18.60;99.90;;;;;;5096338;28;20044;-59
2023/06/24 03:18:01;;;;;;;10.45;6.20;;;18.60;99.90;;;;;;5096293;28;20036;-59
2023/06/24 03:20:28;;;;;;;16.50;6.03;;;18.60;99.90;;;;;;5096346;28;20036;-59
2023/06/24 03:22:56;;;;;;;16.02;6.90;;;18.60;99.90;;;;;;5096221;28;20024;-59
2023/06/24 03:25:22;;;;;;;13.57;6.38;;;18.60;99.90;;;;;;5096029;28;20028;-59
2023/06/24 03:27:49;;;;;;;16.65;6.68;;;18.60;99.90;;;;;;5096197;28;20028;-60
2023/06/24 03:30:15;;;;;;;11.23;5.80;;;18.50;99.90;;;;;;5096045;28;20024;-59
2023/06/24 03:32:46;;;;;;;13.00;5.47;;;18.60;99.90;;;;;;5096007;28;20085;-59
2023/06/24 03:35:14;;;;;;;18.90;6.07;;;18.60;99.90;;;;;;5096226;28;20491;-59
2023/06/24 03:37:40;;;;;;;12.60;6.43;;;18.60;99.90;;;;;;5095498;28;20028;-59
2023/06/24 03:40:07;;;;;;;12.73;6.07;;;18.60;99.90;;;;;;5096160;28;20062;-59
2023/06/24 03:42:35;;;;;;;10.52;5.13;;;18.70;99.90;;;;;;5095942;28;20088;-59
2023/06/24 03:45:03;;;;;;;10.63;5.47;;;18.70;99.90;;;;;;5095737;28;20123;-60
2023/06/24 03:47:29;;;;;;;11.45;5.72;;;18.70;99.90;;;;;;5095712;28;20028;-59
2023/06/24 03:49:55;;;;;;;12.15;5.93;;;18.70;99.90;;;;;;5095739;28;20115;-59
2023/06/24 03:52:21;;;;;;;15.63;5.55;;;18.80;99.90;;;;;;5095699;28;20448;-59
2023/06/24 03:54:48;;;;;;;13.60;5.15;;;18.80;99.90;;;;;;5095629;28;20031;-59
2023/06/24 03:57:15;;;;;;;10.13;5.70;;;18.80;99.90;;;;;;5095592;28;20029;-59
2023/06/24 03:59:40;;;;;;;10.27;5.68;;;18.80;99.90;;;;;;5095368;28;20039;-59
2023/06/24 04:02:09;;;;;;;11.35;5.35;;;18.80;99.90;;;;;;5096715;28;20024;-59
2023/06/24 04:04:36;;;;;;;14.82;5.65;;;18.90;99.90;;;;;;5095473;28;20115;-59
2023/06/24 04:07:05;;;;;;;7.13;5.35;;;18.90;99.90;;;;;;5095284;28;20110;-59
2023/06/24 04:09:35;;;;;;;11.18;5.38;;;18.90;99.90;;;;;;5096474;28;20028;-59
2023/06/24 04:12:01;;;;;;;10.60;5.95;;;18.90;99.90;;;;;;5095250;28;20405;-59
2023/06/24 04:14:33;;;;;;;12.15;5.07;;;18.80;99.90;;;;;;5115418;28;20442;-59
2023/06/24 04:16:59;;;;;;;13.98;6.95;;;18.80;99.90;;;;;;5115652;28;20031;-59
2023/06/24 04:19:25;;;;;;;11.75;6.10;;;18.80;99.90;;;;;;5115388;28;20198;-59
2023/06/24 04:21:51;;;;;;;11.40;6.43;;;18.80;99.90;;;;;;5115457;28;20122;-59
2023/06/24 04:24:17;;;;;;;8.80;5.25;;;18.90;99.90;;;;;;5115316;28;20059;-59
2023/06/24 04:26:43;;;;;;;9.00;5.90;;;18.90;99.90;;;;;;5116522;28;20098;-59
2023/06/24 04:29:09;;;;;;;10.88;5.30;;;18.90;99.90;;;;;;5112111;28;20114;-59
2023/06/24 04:31:35;;;;;;;12.25;6.10;;;19.00;99.90;;;;;;5098845;28;20016;-59
2023/06/24 04:34:01;;;;;;;13.30;6.63;;;19.10;99.90;;;;;;5115199;28;20032;-59
2023/06/24 04:36:27;;;;;;;10.52;5.72;;;19.20;99.90;;;;;;5105851;28;20024;-59
2023/06/24 04:38:53;;;;;;;13.32;6.93;;;19.20;99.90;;;;;;5094729;28;20433;-59
2023/06/24 04:41:19;;;;;;;8.80;5.43;;;19.30;99.90;;;;;;5095946;28;20461;-59
2023/06/24 04:43:45;;;;;;;10.73;5.80;;;19.30;99.90;;;;;;5095882;28;20595;-59
2023/06/24 04:46:11;;;;;;;12.60;6.90;;;19.40;99.90;;;;;;5115046;28;20106;-59
2023/06/24 04:48:37;;;;;;;12.88;6.03;;;19.40;99.90;;;;;;5115389;28;20472;-59
2023/06/24 04:51:03;;;;;;;12.40;6.00;;;19.50;99.90;;;;;;5116256;28;20265;-59
2023/06/24 04:53:29;;;;;;;9.02;5.80;;;19.60;99.90;;;;;;5116171;28;20028;-59
2023/06/24 04:55:55;;;;;;;7.30;5.32;;;19.70;99.90;;;;;;5116214;28;20038;-59
2023/06/24 04:58:21;;;;;;;8.60;5.28;;;19.80;99.90;;;;;;5116059;28;20027;-59
2023/06/24 05:00:47;;;;;;;9.90;5.68;;;19.80;99.90;;;;;;5116012;28;20392;-59
2023/06/24 05:03:13;;;;;;;14.55;5.93;;;19.90;99.90;;;;;;5096943;28;20038;-59
2023/06/24 05:05:39;;;;;;;10.93;5.70;;;20.00;99.90;;;;;;5095376;28;20028;-59
2023/06/24 05:08:05;;;;;;;11.05;5.93;;;20.00;99.90;;;;;;5095467;28;20024;-59
2023/06/24 05:10:31;;;;;;;8.68;5.57;;;20.00;99.90;;;;;;5095474;28;20384;-59
2023/06/24 05:12:56;;;;;;;8.23;5.55;;;19.90;99.90;;;;;;5095338;28;20028;-59
2023/06/24 05:15:22;;;;;;;9.07;5.22;;;19.80;99.90;;;;;;5095251;28;20401;-59
2023/06/24 05:17:48;;;;;;;10.02;5.70;;;19.80;99.90;;;;;;5095243;28;20035;-59
2023/06/24 05:20:14;;;;;;;15.38;5.78;;;19.80;99.90;;;;;;5095260;28;20020;-59
2023/06/24 05:22:40;;;;;;;20.55;5.90;;;19.80;99.90;;;;;;5095211;28;20031;-59
2023/06/24 05:25:07;;;;;;;16.65;5.90;;;19.70;99.90;;;;;;5095038;28;20040;-59
2023/06/24 05:27:32;;;;;;;12.48;6.32;;;19.90;99.90;;;;;;5095265;28;20427;-59
2023/06/24 05:29:58;;;;;;;11.30;5.65;;;19.60;99.90;;;;;;5095086;28;20035;-59
2023/06/24 05:32:24;;;;;;;9.35;5.63;;;19.80;99.90;;;;;;5095044;28;20027;-59
2023/06/24 05:34:50;;;;;;;9.68;5.47;;;19.90;99.90;;;;;;5094980;28;20035;-59
2023/06/24 05:37:16;;;;;;;14.15;5.93;;;19.90;99.90;;;;;;5113154;28;20046;-59
2023/06/24 05:39:42;;;;;;;13.77;5.97;;;19.90;99.90;;;;;;5115328;28;20027;-59
2023/06/24 05:42:08;;;;;;;15.00;5.45;;;19.80;99.90;;;;;;5115223;28;20028;-59
2023/06/24 05:44:34;;;;;;;15.38;5.25;;;19.70;99.90;;;;;;5115210;28;20114;-59
2023/06/24 05:47:00;;;;;;;15.60;5.35;;;19.70;99.90;;;;;;5115258;28;20054;-59
2023/06/24 05:49:26;;;;;;;9.68;4.57;;;19.80;99.90;;;;;;5115151;28;20070;-59
2023/06/24 05:51:52;;;;;;;24.73;5.45;;;19.80;99.90;;;;;;5115131;28;20087;-59
2023/06/24 05:54:18;;;;;;;15.88;5.63;;;19.80;99.90;;;;;;5115127;28;20028;-59
2023/06/24 05:56:44;;;;;;;13.02;5.70;;;19.80;99.90;;;;;;5115155;28;20491;-59
2023/06/24 05:59:10;;;;;;;11.45;5.25;;;19.70;99.90;;;;;;5115348;28;20036;-59
2023/06/24 06:01:36;;;;;;;9.30;5.07;;;19.70;99.90;;;;;;5114904;28;20028;-59
2023/06/24 06:04:02;;;;;;;10.88;4.50;;;19.70;99.90;;;;;;5114983;28;20030;-59
2023/06/24 06:06:28;;;;;;;11.13;5.60;;;19.80;99.90;;;;;;5114951;28;20027;-59
2023/06/24 06:08:54;;;;;;;11.18;5.18;;;19.90;99.90;;;;;;5114812;28;20111;-59
2023/06/24 06:11:20;;;;;;;11.25;5.10;;;20.00;99.90;;;;;;5114860;28;20016;-59
2023/06/24 06:13:46;;;;;;;9.32;4.25;;;20.10;99.90;;;;;;5115282;28;20384;-59
2023/06/24 06:16:12;;;;;;;10.73;4.95;;;20.20;99.90;;;;;;5114844;28;20396;-59
2023/06/24 06:18:38;;;;;;;12.50;4.75;;;20.30;99.90;;;;;;5114974;28;20498;-59
2023/06/24 06:21:04;;;;;;;9.93;4.82;;;20.40;99.90;;;;;;5114840;28;20480;-59
2023/06/24 06:23:30;;;;;;;10.30;4.80;;;20.40;99.90;;;;;;5114722;28;20111;-59
2023/06/24 06:25:56;;;;;;;10.10;4.80;;;20.60;99.90;;;;;;5114697;28;20077;-59
2023/06/24 06:28:22;;;;;;;7.35;4.85;;;20.70;99.90;;;;;;5114905;28;20384;-59
2023/06/24 06:30:48;;;;;;;6.97;4.18;;;20.70;99.90;;;;;;5114747;28;20023;-59
2023/06/24 06:33:13;;;;;;;7.75;4.75;;;20.70;99.90;;;;;;5114776;28;20031;-59
2023/06/24 06:35:39;;;;;;;4.95;3.97;;;20.70;99.90;;;;;;5109744;28;20028;-59
2023/06/24 06:38:05;;;;;;;12.18;5.53;;;20.70;99.90;;;;;;5094256;28;20366;-61
2023/06/24 06:40:31;;;;;;;11.07;4.80;;;20.80;99.90;;;;;;5094297;28;20028;-59
2023/06/24 06:42:57;;;;;;;10.23;4.80;;;20.50;99.90;;;;;;5094534;28;20043;-59
2023/06/24 06:45:23;;;;;;;9.32;4.78;;;20.60;99.90;;;;;;5094056;28;20676;-59
2023/06/24 06:47:50;;;;;;;10.18;4.80;;;20.60;99.90;;;;;;5094380;28;20031;-59
2023/06/24 06:50:16;;;;;;;9.75;5.13;;;20.60;99.90;;;;;;5094208;28;20028;-59
2023/06/24 06:52:42;;;;;;;9.00;5.30;;;20.30;99.90;;;;;;5094190;28;20017;-59
2023/06/24 06:55:09;;;;;;;9.70;5.55;;;20.30;99.90;;;;;;5094191;28;20055;-59
2023/06/24 06:57:35;;;;;;;7.13;5.00;;;20.40;99.90;;;;;;5094146;28;20024;-59
2023/06/24 07:00:01;;;;;;;12.82;5.55;;;20.30;99.90;;;;;;5093985;28;20036;-59
2023/06/24 07:02:27;;;;;;;10.55;5.40;;;20.20;99.90;;;;;;5094121;28;20401;-59
2023/06/24 07:04:53;;;;;;;9.65;6.07;;;20.20;99.90;;;;;;5093973;28;20036;-59
2023/06/24 07:07:19;;;;;;;17.10;6.40;;;20.20;99.90;;;;;;5094046;28;20066;-59
2023/06/24 07:09:46;;;;;;;8.40;5.32;;;20.10;99.90;;;;;;5093960;28;20369;-59
2023/06/24 07:12:13;;;;;;;11.13;5.60;;;20.30;99.90;;;;;;5095146;28;20036;-59
2023/06/24 07:14:39;;;;;;;16.00;7.30;;;20.30;99.90;;;;;;5097486;28;20055;-60
2023/06/24 07:17:07;;;;;;;15.75;7.03;;;20.20;99.90;;;;;;5097629;28;20089;-59
2023/06/24 07:19:33;;;;;;;17.98;7.68;;;20.20;99.90;;;;;;5097546;28;20059;-59
2023/06/24 07:21:58;;;;;;;12.88;6.63;;;20.20;99.90;;;;;;5097444;28;20028;-59
2023/06/24 07:24:24;;;;;;;16.20;7.65;;;20.30;99.90;;;;;;5097413;28;20035;-59
2023/06/24 07:26:50;;;;;;;18.15;7.25;;;20.30;99.90;;;;;;5097413;28;20028;-59
2023/06/24 07:29:17;;;;;;;16.42;7.70;;;20.40;99.90;;;;;;5097292;28;20078;-60
2023/06/24 07:31:43;;;;;;;9.27;5.85;;;20.40;99.90;;;;;;5097371;28;20050;-59
2023/06/24 07:34:09;;;;;;;11.40;6.80;;;20.40;99.90;;;;;;5097244;28;20024;-59
2023/06/24 07:36:35;;;;;;;14.02;6.30;;;20.30;99.90;;;;;;5109700;28;20023;-59
2023/06/24 07:39:01;;;;;;;12.43;6.00;;;20.40;99.90;;;;;;5117643;28;20026;-59
2023/06/24 07:41:27;;;;;;;12.23;6.22;;;20.40;99.90;;;;;;5117426;28;20388;-60
2023/06/24 07:43:52;;;;;;;10.60;6.38;;;20.40;99.90;;;;;;5117469;28;20055;-59
2023/06/24 07:46:20;;;;;;;13.77;7.35;;;20.50;99.90;;;;;;5117449;28;20106;-59
2023/06/24 07:48:45;;;;;;;11.65;7.30;;;20.40;99.90;;;;;;5117273;28;20015;-59
2023/06/24 07:51:12;;;;;;;20.02;7.68;;;20.40;99.90;;;;;;5117346;28;20034;-59
2023/06/24 07:53:37;;;;;;;12.43;7.63;;;20.40;99.90;;;;;;5117471;28;20421;-59
2023/06/24 07:56:03;;;;;;;10.55;5.85;;;20.30;99.90;;;;;;5117206;28;20219;-59
2023/06/24 07:58:29;;;;;;;13.55;7.75;;;20.30;99.90;;;;;;5117464;28;20479;-60
2023/06/24 08:00:55;;;;;;;12.05;7.57;;;20.30;99.90;;;;;;5117319;28;20031;-59
2023/06/24 08:03:22;;;;;;;14.10;7.00;;;20.30;99.90;;;;;;5117058;28;20041;-59
2023/06/24 08:05:49;;;;;;;11.50;7.50;;;20.30;99.90;;;;;;5116972;28;20114;-59
2023/06/24 08:08:15;;;;;;;13.43;7.93;;;20.10;99.90;;;;;;5117093;28;20019;-59
2023/06/24 08:10:41;;;;;;;12.23;7.03;;;20.30;99.90;;;;;;5116839;28;20032;-59
2023/06/24 08:13:07;;;;;;;13.65;7.70;;;20.30;99.90;;;;;;5117059;28;20073;-59
2023/06/24 08:15:33;;;;;;;10.00;7.28;;;20.20;99.90;;;;;;5116843;28;20646;-59
2023/06/24 08:17:59;;;;;;;12.70;7.80;;;20.20;99.90;;;;;;5116777;28;20023;-59
2023/06/24 08:20:25;;;;;;;11.05;8.15;;;20.20;99.90;;;;;;5116992;28;20045;-59
2023/06/24 08:22:51;;;;;;;14.73;9.32;;;20.30;99.90;;;;;;5116754;28;20046;-59
2023/06/24 08:25:17;;;;;;;16.67;10.15;;;20.30;99.90;;;;;;5116661;28;20400;-59
2023/06/24 08:27:46;;;;;;;10.93;7.80;;;20.30;99.90;;;;;;5116721;28;20178;-59
2023/06/24 08:30:15;;;;;;;11.63;8.60;;;20.30;99.90;;;;;;5116646;28;20030;-59
2023/06/24 08:32:41;;;;;;;13.00;8.98;;;20.40;99.90;;;;;;5116498;28;20114;-59
2023/06/24 08:35:09;;;;;;;10.75;7.68;;;20.40;99.90;;;;;;5116161;28;20552;-59
2023/06/24 08:37:37;;;;;;;11.93;7.65;;;20.50;99.90;;;;;;5096194;28;20024;-59
2023/06/24 08:40:04;;;;;;;13.50;7.72;;;20.60;99.90;;;;;;5096339;28;20062;-59
2023/06/24 08:42:30;;;;;;;15.50;8.43;;;20.60;99.90;;;;;;5095943;28;20105;-59
2023/06/24 08:44:56;;;;;;;12.15;8.38;;;20.70;99.90;;;;;;5095749;28;20123;-59
2023/06/24 08:47:24;;;;;;;12.68;7.18;;;20.70;99.90;;;;;;5095895;28;20127;-59
2023/06/24 08:50:01;;;;;;;10.20;6.57;;;20.70;99.90;;;;;;5095847;28;20055;-59
2023/06/24 08:52:31;;;;;;;9.63;7.20;;;20.80;99.90;;;;;;5095883;28;20031;-59
2023/06/24 08:54:59;;;;;;;11.27;7.13;;;20.80;99.90;;;;;;5096092;28;20381;-59
2023/06/24 08:57:26;;;;;;;9.23;7.28;;;20.70;99.90;;;;;;5095674;28;20090;-60
2023/06/24 08:59:53;;;;;;;8.05;6.13;;;20.80;99.90;;;;;;5095749;28;20468;-59
2023/06/24 09:02:19;;;;;;;9.85;6.72;;;20.90;99.90;;;;;;5095648;28;20473;-59
2023/06/24 09:04:45;;;;;;;10.82;6.47;;;21.00;99.90;;;;;;5095623;28;20077;-59
2023/06/24 09:07:11;;;;;;;12.60;7.50;;;20.90;99.90;;;;;;5095575;28;20063;-59
2023/06/24 09:09:44;;;;;;;9.05;6.70;;;21.00;99.90;;;;;;5095298;28;20430;-59
2023/06/24 09:12:14;;;;;;;9.63;6.10;;;21.00;99.90;;;;;;5095335;28;20310;-59
2023/06/24 09:14:40;;;;;;;10.75;7.13;;;21.10;99.90;;;;;;5095492;28;20047;-59
2023/06/24 09:17:09;;;;;;;10.63;6.70;;;21.30;99.90;;;;;;5095433;28;20036;-59
2023/06/24 09:19:39;;;;;;;10.40;6.60;;;21.30;99.90;;;;;;5095310;28;20038;-59
2023/06/24 09:22:16;;;;;;;11.52;6.82;;;21.20;99.90;;;;;;5095531;28;20024;-59
2023/06/24 09:24:42;;;;;;;11.50;6.40;;;21.10;99.90;;;;;;5095182;28;20035;-59
2023/06/24 09:27:11;;;;;;;11.35;6.45;;;21.10;99.90;;;;;;5095315;28;20051;-59
2023/06/24 09:29:37;;;;;;;9.93;7.18;;;21.00;99.90;;;;;;5095158;28;20039;-59
2023/06/24 09:32:07;;;;;;;9.52;6.45;;;21.00;99.90;;;;;;5095093;28;20016;-59
2023/06/24 09:34:33;;;;;;;10.48;6.40;;;21.10;99.90;;;;;;5094768;28;20032;-59
2023/06/24 09:37:00;;;;;;;9.90;5.97;;;21.20;99.90;;;;;;5110732;28;20027;-59
2023/06/24 09:39:30;;;;;;;9.50;5.78;;;21.20;99.90;;;;;;5115379;28;20535;-59
2023/06/24 09:41:56;;;;;;;;;;;21.20;99.90;;;;;;5115850;28;20027;-59
2023/06/24 09:44:23;;;;;;;8.93;5.72;;;21.20;99.90;;;;;;5115199;27;19911;-59
2023/06/24 09:46:49;;;;;;;7.45;5.47;;;21.20;99.90;;;;;;5115299;28;20103;-59
2023/06/24 09:49:15;;;;;;;7.63;5.40;;;21.20;99.90;;;;;;5115290;28;20376;-59
2023/06/24 09:51:46;;;;;;;12.85;7.18;;;20.90;99.90;;;;;;5115118;28;20043;-59
2023/06/24 09:54:14;;;;;;;10.75;6.25;;;21.10;99.90;;;;;;5115197;27;20427;-59
2023/06/24 09:56:54;;;;;;;8.55;5.50;;;21.10;99.90;;;;;;5115122;28;20028;-59
2023/06/24 09:59:21;;;;;;;8.60;5.80;;;21.20;99.90;;;;;;5115014;28;20030;-59
2023/06/24 10:01:49;;;;;;;9.60;5.90;;;21.30;99.90;;;;;;5115051;28;20102;-59
2023/06/24 10:04:19;;;;;;;10.93;5.93;;;21.30;99.90;;;;;;5114681;28;20054;-59
2023/06/24 10:06:45;;;;;;;11.18;6.90;;;21.30;99.90;;;;;;5114981;28;20028;-59
2023/06/24 10:09:13;;;;;;;9.23;6.10;;;21.20;99.90;;;;;;5114989;28;20031;-59
2023/06/24 10:11:40;;;;;;;11.63;6.78;;;21.20;99.90;;;;;;5114906;28;20024;-59
2023/06/24 10:14:06;;;;;;;11.82;6.68;;;21.20;99.90;;;;;;5114829;28;20084;-59
2023/06/24 10:16:32;;;;;;;11.45;5.57;;;21.10;99.90;;;;;;5115012;28;20033;-59
2023/06/24 10:19:02;;;;;;;11.23;6.05;;;21.30;99.90;;;;;;5114870;28;20379;-59
2023/06/24 10:21:49;;;;;;;11.30;5.47;;;21.30;99.90;;;;;;5114775;28;20039;-59
2023/06/24 10:24:47;;;;;;;14.75;5.80;;;21.40;99.90;;;;;;5114789;28;20052;-59
2023/06/24 10:27:17;;;;;;;8.63;5.88;;;21.30;99.90;;;;;;5102158;28;20039;-59
2023/06/24 10:29:48;;;;;;;8.80;5.90;;;21.50;99.90;;;;;;5114753;28;20042;-59
2023/06/24 10:32:15;;;;;;;9.40;5.90;;;21.40;99.90;;;;;;5114868;28;20030;-59
2023/06/24 10:34:46;;;;;;;7.75;5.13;;;21.50;99.90;;;;;;5114587;28;20032;-59
2023/06/24 10:37:14;;;;;;;8.38;5.20;;;21.70;99.90;;;;;;5096906;28;20035;-59
2023/06/24 10:39:54;;;;;;;14.40;5.80;;;21.70;99.90;;;;;;5094343;28;20036;-59
2023/06/24 10:42:38;;;;;;;14.70;6.20;;;21.70;99.90;;;;;;5094355;28;20032;-59
2023/06/24 10:45:10;;;;;;;23.40;7.10;;;21.90;99.90;;;;;;5094228;28;20067;-59
2023/06/24 10:47:41;;;;;;;8.60;4.95;;;22.00;99.90;;;;;;5096113;28;20060;-59
2023/06/24 10:50:10;;;;;;;12.10;5.75;;;22.30;99.90;;;;;;5098135;28;20032;-59
2023/06/24 10:52:55;;;;;;;6.85;4.78;;;22.50;99.90;;;;;;5098225;28;20493;-59
2023/06/24 10:55:28;;;;;;;12.15;5.55;;;22.40;99.90;;;;;;5098095;28;20493;-59
2023/06/24 10:57:54;;;;;;;6.05;4.10;;;22.40;99.90;;;;;;5098006;28;20047;-59
2023/06/24 11:00:22;;;;;;;5.00;4.00;;;22.20;99.90;;;;;;5097687;28;20028;-59
2023/06/24 11:02:48;;;;;;;6.10;4.47;;;22.20;99.90;;;;;;5098042;28;20039;-59
2023/06/24 11:05:14;;;;;;;6.22;3.90;;;22.00;99.90;;;;;;5097912;28;20047;-59
2023/06/24 11:07:40;;;;;;;5.47;3.97;;;22.00;99.90;;;;;;5097834;28;20028;-59
2023/06/24 11:10:10;;;;;;;8.40;4.47;;;22.10;99.90;;;;;;5097625;28;20020;-60
2023/06/24 11:12:37;;;;;;;;;;;22.20;99.90;;;;;;5098188;28;20479;-59
2023/06/24 11:15:08;;;;;;;6.35;4.07;;;22.50;99.90;;;;;;5097577;28;20238;-59
2023/06/24 11:17:35;;;;;;;7.15;4.25;;;22.70;99.90;;;;;;5097708;28;20465;-59
2023/06/24 11:20:02;;;;;;;6.18;4.20;;;22.80;99.90;;;;;;5097627;28;20047;-59
2023/06/24 11:22:28;;;;;;;7.53;4.28;;;23.00;99.90;;;;;;5097795;28;20026;-59
2023/06/24 11:24:55;;;;;;;6.68;3.58;;;23.10;99.90;;;;;;5097410;28;20051;-59
2023/06/24 11:27:26;;;;;;;6.07;3.50;;;23.10;99.90;;;;;;5097363;28;20026;-59
2023/06/24 11:29:53;;;;;;;;;;;23.10;99.90;;;;;;5097931;28;20019;-59
2023/06/24 11:32:19;;;;;;;8.57;4.03;;;23.20;99.90;;;;;;5097359;28;19991;-59
2023/06/24 11:34:46;;;;;;;8.82;4.25;;;22.80;99.90;;;;;;5097575;28;20106;-59
2023/06/24 11:37:13;;;;;;;4.50;3.17;;;22.90;99.90;;;;;;5114870;28;20023;-59
2023/06/24 11:39:40;;;;;;;12.70;3.88;;;22.90;99.90;;;;;;5117694;28;20032;-59
2023/06/24 11:42:09;;;;;;;7.90;3.67;;;22.80;99.90;;;;;;5117540;28;20114;-59
2023/06/24 11:44:42;;;;;;;13.20;4.90;;;22.50;99.90;;;;;;5117601;28;20092;-59
2023/06/24 11:47:09;;;;;;;5.40;3.38;;;22.40;99.90;;;;;;5117667;28;20055;-59
2023/06/24 11:49:57;;;;;;;7.00;3.50;;;22.50;99.90;;;;;;5117555;28;20604;-59
2023/06/24 11:52:43;;;;;;;5.05;3.97;;;22.40;99.90;;;;;;5117326;28;20024;-59
2023/06/24 11:55:16;;;;;;;7.43;4.10;;;22.60;99.90;;;;;;5117427;28;20055;-59
2023/06/24 11:58:01;;;;;;;7.93;3.80;;;22.60;99.90;;;;;;5117000;28;20376;-59
2023/06/24 12:00:38;;;;;;;8.57;3.63;;;22.50;99.90;;;;;;5117214;28;20057;-59
2023/06/24 12:03:06;;;;;;;7.75;4.18;;;22.60;99.90;;;;;;5117157;28;20039;-59
2023/06/24 12:05:34;;;;;;;4.72;3.97;;;22.70;99.90;;;;;;5117125;28;20027;-59
2023/06/24 12:08:02;;;;;;;6.32;3.78;;;22.70;99.90;;;;;;5117153;28;20030;-59
2023/06/24 12:10:30;;;;;;;7.28;3.75;;;22.70;99.90;;;;;;5117010;28;20032;-59
2023/06/24 12:12:58;;;;;;;5.13;3.88;;;22.80;99.90;;;;;;5116882;28;20109;-59
2023/06/24 12:15:24;;;;;;;6.60;3.35;;;23.00;99.90;;;;;;5116763;28;20055;-59
2023/06/24 12:17:50;;;;;;;5.00;3.65;;;23.10;99.90;;;;;;5117172;28;20036;-59
2023/06/24 12:20:17;;;;;;;8.77;4.40;;;23.10;99.90;;;;;;5116883;28;20024;-59
2023/06/24 12:22:44;;;;;;;3.80;3.15;;;23.30;99.90;;;;;;5116758;28;20540;-59
2023/06/24 12:25:10;;;;;;;4.78;3.30;;;23.30;99.90;;;;;;5116654;28;20019;-59
2023/06/24 12:27:37;;;;;;;4.00;3.38;;;23.30;99.90;;;;;;5116803;28;20035;-59
2023/06/24 12:30:04;;;;;;;8.05;4.22;;;23.30;99.90;;;;;;5116702;28;20110;-59
2023/06/24 12:32:30;;;;;;;8.65;3.65;;;23.20;99.90;;;;;;5116734;28;20023;-59
2023/06/24 12:34:56;;;;;;;6.28;3.35;;;23.10;99.90;;;;;;5116506;28;20027;-59
2023/06/24 12:37:22;;;;;;;4.72;3.30;;;23.10;99.90;;;;;;5097262;28;20028;-59
2023/06/24 12:39:50;;;;;;;5.28;3.40;;;22.90;99.90;;;;;;5096138;28;20032;-59
2023/06/24 12:42:17;;;;;;;9.65;3.38;;;22.70;99.90;;;;;;5095928;28;20024;-59
2023/06/24 12:44:43;;;;;;;6.72;3.38;;;22.60;99.90;;;;;;5095966;28;20057;-59